Latest Weather Observations for Deniliquin

IDN60801

Issued at 6:43 pm EDT Wednesday 29 January 2020 (issued every 10 minutes, with the page automatically refreshed every 10 minutes)

About weather observations | Map of weather stations | Latest weather observations for NSW | Other Formats
Station Details ID: 074258 Name: DENILIQUIN AIRPORT AWS Lat: -35.56 Lon: 144.95 Height: 94.0 m
Data from the previous 72 hours. | See also: Recent months at Deniliquin
Date/Time
EDT
Temp
°C
App
Temp
°C
Dew
Point
°C
Rel
Hum
%
Delta-T
°C
Wind Press
QNH
hPa
Press
MSL
hPa
Rain since
9am
mm
Dir  Spd
km/h
Gust
km/h
Spd
kts
Gust
kts
29/06:30pm 35.7 31.9 -3.6 8 18.5 S 7 13 4 7 1012.1 1011.7 0.0
29/06:00pm 36.0 32.4 -3.4 8 18.6 SSW 6 11 3 6 1012.2 1011.8 0.0
29/05:30pm 35.7 30.8 -3.6 8 18.5 S 13 24 7 13 1012.4 1012.0 0.0
29/05:00pm 36.0 31.5 -3.4 8 18.6 SSE 11 20 6 11 1012.8 1012.4 0.0
29/04:30pm 36.1 31.4 -1.7 9 18.4 SE 13 24 7 13 1013.1 1012.7 0.0
29/04:00pm 35.1 30.1 -1.1 10 17.6 ESE 15 20 8 11 1013.5 1013.1 0.0
29/03:30pm 35.0 29.4 -2.6 9 17.9 S 17 28 9 15 1013.9 1013.5 0.0
29/03:00pm 35.7 31.5 -0.6 10 17.9 SSW 11 22 6 12 1014.2 1013.8 0.0
29/02:30pm 33.9 29.1 0.5 12 16.6 SSW 15 22 8 12 1014.6 1014.2 0.0
29/02:00pm 34.8 29.6 0.0 11 17.2 SSW 17 28 9 15 1014.7 1014.3 0.0
29/01:30pm 33.4 28.9 4.2 16 15.3 SW 17 26 9 14 1015.0 1014.6 0.0
29/01:00pm 33.4 29.4 5.0 17 15.1 SW 15 26 8 14 1015.4 1015.0 0.0
29/12:30pm 32.0 27.8 5.5 19 14.1 SSW 17 26 9 14 1016.0 1015.5 0.0
29/12:00pm 30.7 26.7 6.6 22 13.0 SW 17 26 9 14 1016.4 1015.9 0.0
29/11:30am 30.2 25.7 6.8 23 12.6 SW 20 28 11 15 1016.7 1016.2 0.0
29/11:00am 29.5 25.2 8.0 26 11.8 SW 20 30 11 16 1016.8 1016.3 0.0
29/10:30am 27.9 24.9 9.2 31 10.4 SSW 15 22 8 12 1016.9 1016.4 0.0
29/10:00am 26.5 23.9 9.4 34 9.4 S 13 19 7 10 1016.9 1016.4 0.0
29/09:30am 24.8 22.8 10.3 40 8.1 S 11 15 6 8 1016.9 1016.4 0.0
29/09:00am 23.1 21.8 11.2 47 6.7 S 9 11 5 6 1016.7 1016.2 0.0
29/08:30am 21.1 19.8 11.4 54 5.4 S 9 13 5 7 1016.6 1016.1 0.0
29/08:00am 19.7 18.2 12.0 61 4.3 SSE 11 15 6 8 1016.3 1015.8 0.0
29/07:30am 17.9 17.1 11.7 67 3.4 SSE 7 9 4 5 1016.0 1015.5 0.0
29/07:00am 15.5 14.3 10.3 71 2.7 S 7 9 4 5 1015.7 1015.2 0.0
29/06:30am 15.2 13.8 9.6 69 2.9 SSW 7 9 4 5 1015.2 1014.8 0.0
29/06:00am 15.8 14.3 9.2 65 3.4 SSW 7 9 4 5 1015.2 1014.8 0.0
29/05:30am 16.0 13.7 9.0 63 3.6 S 11 13 6 7 1015.0 1014.6 0.0
29/05:00am 16.8 14.2 7.7 55 4.6 S 11 13 6 7 1014.8 1014.4 0.0
29/04:30am 16.6 14.0 7.8 56 4.5 SSW 11 13 6 7 1014.7 1014.3 0.0
29/04:00am 17.6 14.9 7.4 51 5.1 S 11 13 6 7 1014.7 1014.3 0.0
29/03:30am 17.9 15.4 6.4 47 5.7 SSW 9 11 5 6 1014.5 1014.1 0.0
29/03:00am 18.3 15.5 6.8 47 5.8 S 11 13 6 7 1014.6 1014.2 0.0
29/02:30am 18.9 16.9 7.0 46 6.0 SSW 7 9 4 5 1014.5 1014.1 0.0
29/02:00am 20.0 18.9 4.9 37 7.4 CALM 0 0 0 0 1014.5 1014.1 0.0
29/01:30am 21.7 20.5 4.7 33 8.4 CALM 0 0 0 0 1014.5 1014.1 0.0
29/01:00am 20.5 17.5 6.1 39 7.2 SSW 11 13 6 7 1014.3 1013.9 0.0
29/12:30am 20.5 18.5 6.1 39 7.2 SSE 6 7 3 4 1014.3 1013.9 0.0
29/12:00am 21.5 17.4 4.6 33 8.3 SW 15 15 8 8 1014.2 1013.8 0.0
 
Date/Time
EDT
Temp
°C
App
Temp
°C
Dew
Point
°C
Rel
Hum
%
Delta-T
°C
Wind Press
QNH
hPa
Press
MSL
hPa
Rain since
9am
mm
Dir  Spd
km/h
Gust
km/h
Spd
kts
Gust
kts
28/11:30pm 22.7 19.3 4.2 30 9.1 SW 11 13 6 7 1014.4 1014.0 0.0
28/11:00pm 22.7 18.8 5.2 32 8.8 SW 15 17 8 9 1014.3 1013.9 0.0
28/10:30pm 23.9 19.7 3.8 27 9.9 SW 15 19 8 10 1014.3 1013.9 0.0
28/10:00pm 24.7 22.2 4.5 27 10.1 WNW 7 7 4 4 1013.8 1013.4 0.0
28/09:30pm 25.8 22.3 3.7 24 11.0 SW 11 11 6 6 1013.3 1012.9 0.0
28/09:00pm 27.2 23.1 2.3 20 12.2 SSW 13 17 7 9 1013.0 1012.6 0.0
28/08:30pm 29.3 24.7 1.7 17 13.6 SSW 15 19 8 10 1012.7 1012.3 0.0
28/08:00pm 30.8 25.8 1.2 15 14.6 SSW 17 22 9 12 1012.4 1012.0 0.0
28/07:30pm 31.6 26.0 -0.1 13 15.3 SW 19 28 10 15 1012.2 1011.8 0.0
28/07:00pm 32.5 25.5 -0.5 12 16.0 SW 26 33 14 18 1011.9 1011.5 0.0
28/06:30pm 33.3 27.4 -1.1 11 16.6 SW 20 28 11 15 1011.8 1011.4 0.0
28/06:00pm 32.3 25.7 -0.7 12 15.9 SW 24 33 13 18 1011.9 1011.5 0.0
28/05:30pm 32.7 26.3 0.7 13 15.8 SW 24 39 13 21 1011.9 1011.5 0.0
28/05:00pm 32.9 26.5 0.9 13 15.9 SW 24 35 13 19 1012.0 1011.6 0.0
28/04:41pm 33.5 26.2 0.2 12 16.4 SW 28 48 15 26 1012.2 1011.8 0.0
28/04:30pm 32.7 26.0 1.7 14 15.6 SW 26 39 14 21 1012.2 1011.8 0.0
28/04:00pm 33.6 27.4 2.4 14 15.9 WSW 24 39 13 21 1012.5 1012.1 0.0
28/03:30pm 33.1 27.6 2.1 14 15.7 SW 20 33 11 18 1012.7 1012.3 0.0
28/03:00pm 32.4 27.0 2.5 15 15.2 SW 20 32 11 17 1013.0 1012.6 0.0
28/02:30pm 32.1 26.3 2.2 15 15.1 SW 22 32 12 17 1013.3 1012.9 0.0
28/02:00pm 31.1 24.6 0.5 14 14.9 SW 24 33 13 18 1013.8 1013.4 0.0
28/01:30pm 30.5 24.3 -3.3 11 15.4 SW 20 32 11 17 1014.0 1013.6 0.0
28/01:00pm 29.4 23.9 1.8 17 13.6 SW 20 32 11 17 1014.2 1013.8 0.0
28/12:30pm 28.2 23.0 3.8 21 12.3 SSW 20 28 11 15 1014.5 1014.1 0.0
28/12:00pm 28.3 23.4 3.9 21 12.4 SW 19 32 10 17 1014.6 1014.2 0.0
28/11:30am 28.6 23.0 5.5 23 12.1 SW 24 33 13 18 1014.8 1014.4 0.0
28/11:00am 26.5 21.4 6.0 27 10.7 SW 22 32 12 17 1014.5 1014.1 0.0
28/10:30am 26.5 22.3 7.5 30 10.2 SW 19 24 10 13 1014.4 1014.0 0.0
28/10:00am 23.6 21.4 9.2 40 7.8 WSW 11 17 6 9 1014.3 1013.9 0.0
28/09:30am 21.9 20.2 9.8 46 6.6 SW 9 15 5 8 1014.4 1014.0 0.0
28/09:00am 20.0 18.9 10.7 55 5.1 SW 7 9 4 5 1014.1 1013.7 0.0
28/08:30am 18.8 18.6 10.4 58 4.5 SW 2 7 1 4 1013.8 1013.4 0.0
28/08:00am 17.6 16.1 10.7 64 3.7 S 9 11 5 6 1013.6 1013.2 0.0
28/07:30am 16.5 15.1 10.8 69 3.1 SSW 9 13 5 7 1013.3 1012.9 0.0
28/07:00am 15.3 13.1 10.9 75 2.3 SW 13 15 7 8 1013.3 1012.9 0.0
28/06:30am 14.5 12.7 10.7 78 2.0 SW 11 15 6 8 1013.0 1012.6 0.0
28/06:00am 14.9 12.7 10.9 77 2.1 SW 13 15 7 8 1012.5 1012.1 0.0
28/05:30am 15.5 13.0 11.1 75 2.4 SW 15 17 8 9 1012.5 1012.1 0.0
28/05:00am 16.0 13.9 11.2 73 2.6 SSW 13 15 7 8 1012.1 1011.7 0.0
28/04:30am 16.3 13.8 11.2 72 2.8 SW 15 17 8 9 1012.0 1011.6 0.0
28/04:00am 17.0 13.9 11.5 70 3.0 SW 19 24 10 13 1012.0 1011.6 0.0
28/03:30am 17.3 14.5 11.3 68 3.3 SW 17 20 9 11 1012.2 1011.8 0.0
28/03:00am 18.1 14.9 11.2 64 3.8 SW 19 26 10 14 1012.3 1011.9 0.0
28/02:30am 18.6 15.2 10.4 59 4.4 SW 19 20 10 11 1012.3 1011.9 0.0
28/02:00am 18.1 15.1 7.8 51 5.3 SW 13 15 7 8 1012.2 1011.8 0.0
28/01:30am 17.4 13.9 5.4 45 5.8 SW 13 19 7 10 1012.3 1011.9 0.0
28/01:00am 19.4 17.7 5.8 41 6.7 SW 4 9 2 5 1012.2 1011.8 0.0
28/12:30am 20.0 17.2 3.3 33 7.9 SSW 7 9 4 5 1012.4 1012.0 0.0
28/12:00am 20.6 16.2 0.4 26 9.1 WSW 13 17 7 9 1012.4 1012.0 0.0
 
Date/Time
EDT
Temp
°C
App
Temp
°C
Dew
Point
°C
Rel
Hum
%
Delta-T
°C
Wind Press
QNH
hPa
Press
MSL
hPa
Rain since
9am
mm
Dir  Spd
km/h
Gust
km/h
Spd
kts
Gust
kts
27/11:30pm 21.8 17.3 -0.2 23 9.9 W 13 17 7 9 1012.4 1012.0 0.0
27/11:00pm 21.9 17.1 0.4 24 9.8 WSW 15 17 8 9 1012.2 1011.8 0.0
27/10:30pm 22.2 18.0 1.8 26 9.5 WSW 13 15 7 8 1012.3 1011.9 0.0
27/10:00pm 23.5 19.4 2.4 25 10.1 WSW 13 15 7 8 1012.2 1011.8 0.0
27/09:30pm 24.9 21.1 1.7 22 11.1 WSW 11 13 6 7 1011.8 1011.4 0.0
27/09:00pm 26.0 22.2 2.0 21 11.6 SW 11 15 6 8 1011.4 1010.9 0.0
27/08:30pm 28.0 24.2 1.5 18 12.9 SW 11 13 6 7 1011.2 1010.7 0.0
27/08:00pm 30.5 25.7 0.0 14 14.7 SW 15 19 8 10 1010.9 1010.4 0.0
27/07:30pm 31.9 27.1 0.1 13 15.5 SSW 15 20 8 11 1010.9 1010.4 0.0
27/07:00pm 32.3 27.0 -0.7 12 15.9 SSW 17 22 9 12 1010.8 1010.3 0.0
27/06:30pm 33.3 28.5 0.1 12 16.3 SW 15 26 8 14 1010.8 1010.3 0.0
27/06:00pm 33.1 27.9 -0.1 12 16.2 SW 17 30 9 16 1011.0 1010.5 0.0
27/05:30pm 33.4 28.2 0.1 12 16.4 WSW 17 20 9 11 1011.0 1010.5 0.0
27/05:00pm 33.8 28.7 -2.0 10 17.1 SW 15 22 8 12 1011.1 1010.6 0.0
27/04:30pm 32.3 26.1 -4.6 9 16.6 SW 19 28 10 15 1011.3 1010.8 0.0
27/04:00pm 33.1 27.5 1.0 13 16.0 SW 20 28 11 15 1011.4 1010.9 0.0
27/03:30pm 33.8 28.3 1.6 13 16.3 SW 20 30 11 16 1011.7 1011.2 0.0
27/03:00pm 33.1 27.3 -0.1 12 16.2 SW 20 32 11 17 1011.7 1011.2 0.0
27/02:30pm 34.2 28.9 1.9 13 16.4 SW 19 26 10 14 1012.0 1011.6 0.0
27/02:00pm 33.3 28.6 3.2 15 15.6 SW 17 26 9 14 1012.4 1012.0 0.0
27/01:30pm 32.1 27.6 2.2 15 15.1 SW 15 26 8 14 1012.7 1012.3 0.0
27/01:00pm 31.6 27.6 2.7 16 14.7 WSW 13 22 7 12 1012.9 1012.5 0.0
27/12:30pm 31.0 27.2 3.9 18 14.0 SSW 13 20 7 11 1013.4 1013.0 0.0
27/12:00pm 30.0 26.8 5.3 21 13.0 SW 11 20 6 11 1013.8 1013.4 0.0
27/11:30am 28.8 26.1 5.6 23 12.2 SSW 9 13 5 7 1014.0 1013.6 0.0
27/11:00am 27.8 25.6 6.0 25 11.4 SSW 7 13 4 7 1014.3 1013.9 0.0
27/10:30am 27.3 25.4 9.2 32 10.0 SW 9 13 5 7 1014.4 1014.0 0.0
27/10:00am 25.0 23.8 11.6 43 7.6 SSW 9 13 5 7 1014.7 1014.3 0.0
27/09:30am 22.3 21.4 12.5 53 5.6 SW 9 13 5 7 1014.6 1014.2 0.0
27/09:00am 20.8 19.0 13.3 62 4.3 SW 15 19 8 10 1014.8 1014.4 0.0
27/08:30am 18.8 17.7 13.0 69 3.3 SW 11 15 6 8 1014.4 1014.0 0.0
27/08:00am 18.2 16.2 13.9 76 2.5 SW 17 20 9 11 1014.2 1013.8 0.0
27/07:30am 16.5 16.1 14.0 85 1.4 SW 9 11 5 6 1013.6 1013.2 0.0
27/07:00am 14.9 15.9 13.3 90 0.9 CALM 0 0 0 0 1013.5 1013.1 0.0
27/06:30am 14.7 15.5 12.7 88 1.1 CALM 0 0 0 0 1013.3 1012.9 0.0
27/06:00am 15.6 16.6 13.3 86 1.3 CALM 0 6 0 3 1013.0 1012.6 0.0
27/05:30am 16.0 15.6 13.1 83 1.6 SSW 7 9 4 5 1012.7 1012.3 0.0
27/05:00am 16.1 14.6 13.2 83 1.6 WSW 13 15 7 8 1012.7 1012.3 0.0
27/04:30am 16.9 15.9 13.4 80 2.0 SW 11 13 6 7 1012.4 1012.0 0.0
27/04:00am 17.7 15.9 13.4 76 2.4 SW 15 19 8 10 1012.4 1012.0 0.0
27/03:30am 17.9 16.6 13.6 76 2.4 SW 13 15 7 8 1012.5 1012.1 0.0
27/03:00am 19.0 18.7 13.4 70 3.2 SSW 7 9 4 5 1012.5 1012.1 0.0
27/02:30am 19.8 19.1 14.2 70 3.3 SSW 11 15 6 8 1012.6 1012.2 0.0
27/02:00am 20.5 19.8 14.4 68 3.6 S 11 13 6 7 1012.6 1012.2 0.0
27/01:30am 21.6 20.1 14.3 63 4.3 SSE 15 19 8 10 1012.8 1012.4 0.0
27/01:00am 22.2 20.7 14.3 61 4.6 SSE 15 19 8 10 1013.0 1012.6 0.0
27/12:30am 23.1 21.8 13.8 55 5.4 S 13 20 7 11 1013.0 1012.6 0.0
27/12:00am 24.1 21.5 13.3 51 6.3 SSW 19 26 10 14 1013.0 1012.6 0.0
 
Date/Time
EDT
Temp
°C
App
Temp
°C
Dew
Point
°C
Rel
Hum
%
Delta-T
°C
Wind Press
QNH
hPa
Press
MSL
hPa
Rain since
9am
mm
Dir  Spd
km/h
Gust
km/h
Spd
kts
Gust
kts
26/11:30pm 23.3 20.4 9.7 42 7.4 SW 15 17 8 9 1012.9 1012.5 0.0
26/11:00pm 24.9 21.0 8.8 36 8.7 SW 19 22 10 12 1013.0 1012.6 0.0
26/10:30pm 25.0 21.6 9.3 37 8.6 WSW 17 19 9 10 1012.7 1012.3 0.0
26/10:00pm 24.4 21.6 9.9 40 8.0 WSW 15 17 8 9 1012.6 1012.2 0.0
26/09:30pm 25.2 22.3 9.5 37 8.6 SW 15 15 8 8 1012.3 1011.9 0.0
26/09:00pm 26.7 23.5 8.6 32 9.9 SW 15 15 8 8 1011.9 1011.5 0.0
26/08:30pm 28.4 25.0 9.2 30 10.7 WSW 17 22 9 12 1011.5 1011.0 0.0
26/08:00pm 30.4 26.3 8.7 26 12.1 WSW 20 26 11 14 1011.3 1010.8 0.0
26/07:30pm 30.9 26.4 8.6 25 12.4 WSW 22 26 12 14 1011.0 1010.5 0.0
26/07:00pm 31.9 26.7 8.8 24 13.0 WSW 26 37 14 20 1010.6 1010.1 0.0

Other formats

Comma delimited format used in spreadsheet applications
http://www.bom.gov.au/fwo/IDN60801/IDN60801.95869.axf

JavaScript Object Notation format (JSON) in row-major order
http://www.bom.gov.au/fwo/IDN60801/IDN60801.95869.json

Data quality

Most of these data are generated automatically and are frequently updated. Quality checks on data are not normally performed. It is possible for incorrect values to appear. Refer to information at About Latest Weather Observations and please check the disclaimer before using these data.